SMRA70 UAOL 191500
AAXX 19151
71001 45466 82801 11204 21219 39081 40084 52007 333 6///7=
71002 45966 02706 11209 21235 39521 40083 52008 333 6///7=
71003 45966 00901 11282 21307 39708 40110 57003 333 6///7=
71005 26/// ///// 11040 21074 333 60007=
71006 26/// /2509 11015 21082 333 60007=
71007 26/// ///// 11026 21071 333 60007=
71008 46/// /2611 11062 21099 333 6///7=
71009 26/// /0000 11106 21140 333 60007=
71011 26/// ///// 11059 21116 333 60007=
71012 26/// /2711 11008 21063 333 60007=
71013 26/// ///// 11058 21103 333 60007=
71016 46/// ///// 11006 333 6///7=
71017 26/// /1102 11334 21371 30166 40182 51003 333 60007=
71018 26/// /1206 11266 21291 30099 40190 51010 333 60007=
71021 46/// ///// 11091 21122 39682 40035 53017 333 6///7=
71022 45766 81902 10041 20037 39954 49997 52008 333 6///7=
71023 25464 82907 10003 21038 39195 49953 52005 333 60007=
71024 26/// /3006 11060 21073 39621 49978 52021 333 60007=
71027 26/// /3404 11034 21103 30063 40076 50012 333 60007=
71028 26/// /0003 11074 21081 39026 40062 51010 333 60007=
71029 26/// /0511 11175 21211 30075 40115 51013 333 60007=
71030 26/// /3304 11045 21062 30036 40134 51008 333 60007=
71031 46/// /1506 10067 20033 30049 40072 53004 333 6///7=
71033 26/// /1009 11129 21147 39345 49979 51014 333 60007=
71035 26/// /2706 11152 21182 333 60007=
71036 45566 70207 11035 21045 39584 49955 52023 333 6///7=
71038 26/// /0000 11106 21131 30065 40120 53006 333 69957=
71040 46/// /0405 11107 21133 39898 40103 58009 333 6///7=
71041 45466 83307 11053 21085 39942 40085 52019 333 6///7=
71042 26/// /1403 10064 20039 30081 40085 53004 333 60007=
71057 26/// /1611 11051 21103 333 60007=
71059 45/// ///// 11215 39990 40084 53001 333 6///7=
71061 26/// /2706 10003 21069 39216 49981 51003 333 60007=
71063 26/// /2105 11040 21064 30019 40119 53001 333 60007=
71064 469// 0//// 11311 21354 39920 40148 52004 333 6///7=
71070 46/// ///// 11062 21085 333 6///7=
71088 469// /0411 11304 21335 30122 40179 52003 333 6///7=
71099 45866 81011 11202 21227 30013 40034 57015 333 6///7=
71110 26/// /0010 39956 58004 333 60007=
71118 26/// /2109 11029 21089 39180 49996 53002 333 60007=
71144 26/// /2511 11010 21023 39629 49936 53003 333 60007=
71149 26/// /3309 10036 21015 39520 49944 53027 333 60007=
71152 26/// /3004 11045 21084 30038 40051 50008 333 60007=
71156 26/// /2701 11072 21105 38928 40021 53006 333 60007=
71159 26/// /3311 11048 21076 39980 40053 54000 333 60007=
71171 26/// /2213 11013 21070 30040 40139 57003 333 60007=
71172 26/// ///// 39871 52006 333 60007=
71174 47466 80511 11172 21194 30078 40092 52003 771// 333 6///7=
71175 26/// /0205 11039 21081 30045 40080 50017 333 60007=
71179 45/// ///// 39147 50008 333 6///7=
71181 25/// ///// 39976 50000 333 60007=
71190 46/// /3403 11076 21114 333 6///7=
71191 26/// /3503 11078 21122 333 60007=
71192 45966 01704 11020 21045 39394 40050 52007 333 6///7=
71195 26/// /0000 11209 21225 39090 40093 51006 333 60007=
71198 46/// /2014 11030 21047 333 6///7=
71199 26/// /1301 11298 21333 39231 40103 51014 333 60007=
71202 46/// ///// 11045 21090 333 6///7=
71204 26/// /2915 11020 21064 39050 40024 53006 333 60007=
71209 46/// /1520 10071 20038 333 6///7=
71212 27/// /2203 11091 21103 39276 40093 53004 7//4/ 333 69927=
71213 26/// /1910 11021 21033 39747 40048 58013 333 69907=
71217 26/// /2202 11077 21105 333 60007=
71219 26/// /0703 10056 20035 39986 49994 51009 333 60007=
71220 46/// /3404 10058 20045 333 6///7=
71233 26/// /1602 11006 21095 333 60007=
71237 46/// /0101 11149 21164 333 6///7=
71264 26/// /3406 11055 21098 30082 40114 51009 333 60007=
71267 45966 42518 10005 21058 38961 40048 52007 333 6///7=
71268 26/// /1301 11018 21021 39410 40029 51011 333 60007=
71274 26/// /2505 11039 21071 333 60007=
71275 26/// /2206 11066 21094 333 60007=
71277 26/// /2508 11006 21046 333 60007=
71279 27/// /0004 11152 21195 30047 40115 53002 7//4/ 333 69927=
71288 26/// /0704 11345 21382 30135 40161 53007 333 60007=
71291 26/// /1807 11016 21028 39676 49965 56028 333 60007=
71292 45466 72709 11005 21019 39372 49971 52016 333 6///7=
71293 45966 00612 11238 21266 30172 40185 52001 333 6///7=
71294 26/// /2201 11051 21060 39706 40114 53001 333 60007=
71295 26/// /2503 11034 21042 39480 49921 56015 333 60007=
71296 26/// /2209 11032 21069 39808 40118 55002 333 60007=
71297 26/// /2406 11016 21058 30008 40135 57004 333 60007=
71298 26/// /2311 11039 21084 39918 40157 58003 333 60007=
71299 26/// /1303 11062 21072 39729 40005 57032 333 60007=
71300 26/// /2206 11036 21058 39997 40122 53003 333 60007=
71301 26/// ///// 11033 21038 39642 40042 58015 333 60007=
71302 26/// /1807 10008 21043 39223 40032 53009 333 60007=
71304 26/// /2512 11001 21070 38611 40051 58003 333 60007=
71305 47466 80509 11096 21108 39683 49975 52021 771// 333 6///7=
71306 45966 02302 11284 21314 30070 40104 52004 333 6///7=
71307 26/// /2215 11029 21085 39907 40162 56001 333 60007=
71308 26/// /3509 11046 21078 30012 40098 53022 333 60007=
71309 26/// /0906 11149 21167 30030 40042 58033 333 60007=
71311 26/// /3405 11099 21116 30097 40122 53009 333 69947=
71312 26/// /0701 11099 21111 39504 49963 53004 333 60007=
71314 26/// /2307 11034 21067 39765 40123 53002 333 60007=
71315 26/// /2607 11108 21161 30069 40124 51007 333 60007=
71316 26/// /2706 10009 21026 39291 49965 51006 333 60007=
71317 26/// /0104 11091 21102 30065 40113 50007 333 69927=
71318 26/// /2509 11044 21089 39077 40018 53005 333 60007=
71320 26/// ///// 11241 21262 30176 40177 53001 333 60007=
71321 26/// /0000 11264 21293 30071 40117 52002 333 60007=
71322 26/// /0510 11180 21195 30078 40091 51002 333 60007=
71331 26/// /0503 11127 21154 39608 49981 53010 333 60007=
71332 26/// /0209 11181 21202 30040 40070 51009 333 60007=
71334 26/// /0604 11202 21219 39721 40061 52010 333 60007=
71335 467// 73004 11182 21200 39342 49992 52010 333 6///7=
71337 26/// ///// 11054 21083 39786 40024 50001 333 60007=
71338 45666 82801 11279 21303 30183 40191 57004 333 6///7=
71339 45966 03008 11110 21144 30004 40018 57010 333 6///7=
71347 26/// /2806 11047 21051 333 60007=
71349 26/// /2106 11014 21019 333 60007=
71350 26/// /3005 11067 21084 30032 40099 50009 333 60007=
71355 26/// /2802 11283 21311 30149 40239 56003 333 60007=
71356 26/// /0804 11240 21270 30070 40139 53002 333 60007=
71357 26/// /2701 11282 21312 30186 40193 58003 333 60007=
71362 26/// /0502 11077 21089 39724 49979 52017 333 60007=
71363 26/// /0906 30109 53006 333 60007=
71364 27/// /3209 11078 21089 39899 40031 53010 7//4/ 333 60027=
71366 45766 82602 11240 21266 30055 40120 54000 333 6///7=
71367 26/// /3104 11053 21093 39842 40048 51001 333 60007=
71369 47566 82708 10014 21017 39280 49974 52006 771// 333 6///7=
71393 26/// /2306 11058 21126 38772 40041 53004 333 60007=
71399 26/// ///// 11082 21114 333 60007=
71401 26/// /1602 10003 21002 39427 40112 53010 333 60007=
71405 26/// ///// 11017 21069 333 60007=
71406 27/// /3110 11081 21126 30020 40030 53002 7//4/ 333 60227=
71407 26/// /0506 11401 21447 30179 40202 53004 333 60007=
71409 26/// ///// 11047 21081 333 60007=
71413 26/// ///// 11047 21091 333 60007=
71449 26/// /2505 10019 21017 39552 49950 58016 333 60007=
71470 26/// /0915 11190 21212 39446 40086 53003 333 60007=
71471 45666 83105 10012 21024 39218 49998 52011 333 6///7=
71480 26/// /3202 11099 21114 39925 40047 53018 333 60007=
71489 26/// /2708 11039 21077 39207 49993 53003 333 60007=
71491 26/// /1803 11138 21152 39935 40041 51017 333 60007=
71493 26/// /0302 11096 21125 30082 40121 51014 333 60007=
71494 26/// /2404 11067 21076 39584 40113 50003 333 69927=
71497 46/// /2103 11211 21238 39768 40041 52019 333 6///7=
71500 46/// /2707 10010 21066 333 6///7=
71508 26/// ///// 11020 21080 39993 40133 56002 333 60007=
71509 26/// /2513 10007 21054 333 60007=
71515 26/// /2612 11020 21044 39294 49986 53010 333 60007=
71519 26/// /2206 11019 21060 333 60007=
71525 26/// /2008 11050 21072 333 60007=
71526 26/// /2207 11072 21129 333 60007=
71532 47458 81908 11035 21057 39761 40110 57001 704// 333 6///7=
71533 26/// /3401 11014 21016 39965 40009 51008 333 60007=
71534 25862 42307 11028 21059 39847 40123 53001 333 60007=
71535 26/// /2814 10016 21049 333 60007=
71537 26/// /2407 11069 21086 333 60007=
71539 26/// /2513 11015 21054 39327 40016 52009 333 60007=
71540 26/// /2601 11067 21103 333 60007=
71541 26/// /2505 11016 21035 333 60007=
71553 26/// /3008 11010 21028 39309 49954 51017 333 60007=
71554 26/// /0803 11109 21150 30129 40135 53005 333 60007=
71556 26/// /2508 11048 21062 39392 49992 53013 333 60007=
71557 46/// /0402 11019 21036 333 6///7=
71558 26/// ///// 11097 21146 39983 40020 58003 333 60007=
71559 26/// /2508 10011 21029 39321 40015 53009 333 60007=
71560 26/// /2206 10017 21003 39672 49968 55005 333 60007=
71566 26/// /2303 11039 21093 333 60007=
71568 26/// /1312 10065 20042 30014 40018 55000 333 69967=
71570 26/// /2406 10011 21028 39626 49935 55005 333 60007=
71574 42974 62802 11105 21160 30046 40121 53003 333 6///7=
71576 26/// /1703 11337 21377 30142 40233 53006 333 60007=
71580 42566 20607 11330 21371 30157 40196 52007 333 6///7=
71581 26/// /2102 11052 21062 39613 40101 55001 333 69927=
71582 45866 81404 10072 20011 39928 49979 52004 333 6///7=
71584 45966 22704 11162 21203 30053 40102 52004 333 6///7=
71590 26/// /2704 11107 21142 39926 40122 51006 333 60007=
71594 26/// /0000 11124 21140 39553 40024 52015 333 60007=
71595 25466 83619 11008 21043 30052 40054 52019 333 60007=
71596 26/// /0206 11037 21068 30048 40067 50018 333 60007=
71598 27/// /3005 11095 21148 30113 40119 51006 7//4/ 333 60017=
71602 26/// /2216 11032 21068 39832 40135 58004 333 60007=
71606 26/// /1702 11083 21111 39939 40133 51009 333 60007=
71613 26/// /0000 11332 21365 30207 40221 53003 333 60007=
71622 26/// ///// 11042 21092 39802 40146 58002 333 60007=
71635 26/// /2105 11042 21051 30012 40121 55002 333 60007=
71636 26/// /2804 10014 21065 39219 49986 50002 333 60007=
71637 26/// /2709 11012 21066 39173 49989 51004 333 60007=
71640 26/// ///// 11013 21030 39530 40020 58021 333 60007=
71641 26/// ///// 11250 21281 39797 40101 53002 333 60007=
71644 26/// ///// 11005 21026 39558 40109 53010 333 60007=
71645 46/// /0000 11064 21093 39530 40067 53010 333 6///7=
71652 47459 81208 11140 21150 39742 49978 57041 7714/ 333 6///7=
71653 47440 8//// 11171 21189 30032 40044 57029 771// 333 6///7=
71654 26/// /2804 11007 21040 39230 49965 51003 333 60007=
71655 26/// /3012 10008 21007 39297 49955 53004 333 60007=
71656 26/// /2201 11113 21122 30054 40128 53005 333 60007=
71658 26/// /3404 11116 21159 30051 40121 53004 333 60007=
71659 26/// /0304 11127 21183 30113 40116 50004 333 60007=
71660 26/// /2503 11035 21044 38993 40090 52001 333 60007=
71663 26/// /2611 11032 21069 39220 49983 53007 333 60007=
71664 45966 02708 10013 21070 39179 49992 52001 333 6///7=
71665 26/// /2710 11168 21229 30003 40013 50007 333 60007=
71666 27/// /0000 11103 21130 30071 40117 53005 7//44 333 60017=
71667 26/// /0602 11040 21052 39717 49962 56035 333 60007=
71668 26/// /3202 11097 21107 30085 40130 50009 333 60007=
71670 26/// /3502 11097 21133 30099 40126 51005 333 60007=
71671 26/// /0003 11069 21096 30054 40116 51010 333 69927=
71672 26/// /2006 11030 21064 39852 40120 56001 333 60007=
71674 26/// /2408 11036 21085 333 60007=
71678 47366 80607 11105 21114 39577 49924 57014 771// 333 6///7=
71679 26/// /0401 11073 21077 39015 40031 52010 333 60007=
71681 26/// /0000 11018 21028 39683 40079 53010 333 60007=
71684 47358 81810 11021 21022 39748 40050 57012 710// 333 6///7=
71685 47356 83501 10004 20004 39555 40094 52006 761// 333 6///7=
71686 47448 80707 11086 21095 39093 40052 52010 764// 333 6///7=
71687 26/// ///// 10006 20005 39296 40075 51006 333 60007=
71688 26/// /0000 11004 21004 39037 40065 52004 333 60007=
71689 45466 82606 11003 21019 39499 49946 52013 333 6///7=
71691 45966 73406 11151 21197 30102 40130 52001 333 6///7=
71692 46/// /0110 11040 333 6///7=
71693 26/// /2808 10012 21021 39284 49976 51006 333 60007=
71694 26/// /1904 11033 21047 39750 40117 56001 333 60007=
71695 26/// /3402 11118 21135 39636 49973 53015 333 60007=
71696 26/// /0607 11161 21177 30017 40055 53001 333 60007=
71697 45666 42309 11022 21069 39957 40131 57005 333 6///7=
71698 26/// /3608 11045 21078 39999 40075 51021 333 60007=
71699 46/// /3305 11059 21079 30121 40129 51010 333 6///7=
71704 45966 02010 11041 21078 39916 40141 57004 333 6///7=
71729 26/// /2111 11043 21064 30038 40115 53001 333 60007=
71732 26/// /1406 11026 21031 333 60007=
71741 26/// /1106 10012 21012 39663 40083 53010 333 60007=
71742 26/// ///// 11066 21078 39849 40036 58002 333 60007=
71744 26/// /2705 11099 21141 30074 40116 53003 333 60007=
71746 26/// /2009 11042 21090 39911 40136 56004 333 60007=
71752 26/// /2310 11024 21084 39929 40150 56005 333 60007=
71753 26/// /3308 11078 21115 30072 40102 50008 333 60007=
71754 26/// /2709 11014 21066 39331 49989 53003 333 60007=
71756 26/// /0000 11011 21012 38977 40064 51005 333 60007=
71758 26/// /3511 11045 21073 39997 40074 50017 333 60007=
71765 26/// /1717 10045 20011 39801 40073 53011 333 60007=
71766 27/// /1311 10057 20043 39986 40057 53003 7//44 333 69977=
71767 26/// /2308 11001 21023 39831 40093 53002 333 60007=
71773 26/// /1301 11141 21153 39197 40073 52010 333 69927=
71779 26/// /1503 11017 21044 39391 40046 53007 333 60007=
71787 26/// /3503 11119 21123 39613 40113 51010 333 60007=
71789 26/// /1403 10001 21061 333 60007=
71792 26/// ///// 11040 21105 333 60007=
71793 26/// /2703 11066 21108 333 60007=
71795 46/// /2613 11003 21048 333 6///7=
71812 45966 81714 10047 20008 39799 40072 52010 333 6///7=
71824 46/// /1102 11129 333 6///7=
71833 46/// /2307 11050 21086 333 6///7=
71835 26/// /1906 11060 21070 39433 49911 58020 333 60007=
71839 46/// ///// 10002 333 6///7=
71849 26/// /2311 10031 21005 39647 49938 56005 333 60007=
71885 46/// ///// 11019 333 6///7=
71914 26/// /0003 10049 39851 40071 53004 333 60007=
71921 45966 03012 11239 21279 39413 40080 52012 333 6///7=
71927 46/// /2001 10052 20043 30020 40075 53004 333 6///7=
71941 47248 81908 11034 21034 39642 40061 57006 771// 333 6///7=
71947 47466 81407 11117 21124 39698 40052 57021 771// 333 6///7=
71959 26/// ///// 11057 21072 333 60007=
71962 26/// /2207 10004 21034 39535 49952 58015 333 60007=
71970 26/// /2611 10007 21012 39378 49959 53006 333 60007=
71973 46/// /2907 11051 39864 40053 50000 333 6///7=
71987 26/// ///// 11070 21107 30095 40105 51009 333 60007=
71989 26/// /3104 11234 21256 30157 40174 55001 333 60007=
71999 46/// ///// 10002 21001 39784 40078 53010 333 6///7=
73001 26/// /2608 11037 21061 39318 40009 53006 333 60007=
73002 27/// /2706 10002 21003 39438 49951 53004 7//44 333 69957=
73005 26/// /1801 11125 21173 39959 40116 53004 333 60007=
73011 26/// /1104 11135 21156 39587 40079 57010 333 69967=
73016 26/// /2106 11034 21040 39633 40086 51003 333 60007=
73018 26/// /2008 10001 21009 39621 49976 56034 333 60007=
73025 26/// /0118 11007 21044 30053 40059 51018 333 60007=
73026 26/// /1904 11027 21092 30015 40065 53008 333 60007=
73027 26/// /3605 11050 21091 30024 40092 51013 333 60007=
73029 26/// ///// 11061 21078 333 60007=
73030 46/// /3515 11049 21078 30067 40083 50013 333 6///7=
76055 32980 03101 10109 20049 30121 40140 5//// 91445 333 30/// 59044=
76061 32981 00904 10110 20057 30092 40165 52002 91450 333 30/// 59039=
76109 22/// ///// 1//// 2//// 3//// 4//// 5//// 7//// 8//// 9//// 333 0//// 30/// 4//// 54/// 56/// 57/// 5//// 6//// 8//// 8//// 8//// 9//// 9//// 9//// 444 ///// 555 1////=
76113 32980 00601 10080 20033 39692 40170 5//// 91445 333 30/// 59011=
76117 22/// ///// 1//// 2//// 3//// 4//// 5//// 7//// 8//// 9//// 333 0//// 30/// 4//// 54/// 56/// 57/// 5//// 6//// 8//// 8//// 8//// 9//// 9//// 9//// 444 ///// 555 1////=
76122 31970 40000 11006 21025 38511 40183 52001 70000 80004 91445 333 30/// 56005 59037 84070 96122 96126 96128=
76123 26/// /1801 10008 21032 38568 40251 50002 6 7 8 91450 333 0 1 2 30/// 4 59038 54 55 2 56 57 58 59 60007 7 8 8 8 9 9 9 444 555 11020 30008=
76160 32962 20902 10096 20019 39921 40179 52007 80002 91445 333 30/// 56009 59007 82070=
76161 26/// /1102 10096 21026 39921 40180 52013 7//// 8//// 91450 333 0//// 30/// 4//// 54/// 56/// 57/// 59011 60007 8//// 8//// 8//// 9//// 9//// 9//// 444 ///// 555 10099=
76219 26/// /3001 11055 21076 38188 40335 53008 6 7 8 91450 333 0 1 2 30/// 4 59005 54 55 2 56 57 58 59 60007 7 8 8 8 9 9 9 444 555 11086 31040=
76220 31920 40000 11068 21068 38185 40315 52009 70300 80004 91445 333 30/// 56009 59006 84070 96126=
76225 31958 11101 10028 21040 38647 40212 51005 705// 81030 91445 333 30/// 56050 59030 81360 96004=
76242 26/// /2601 10033 20004 39950 40207 53007 7//// 8//// 91450 333 0//// 30/// 4//// 54/// 56/// 57/// 59077 60007 8//// 8//// 8//// 9//// 9//// 9//// 444 ///// 555 10059=
76243 32472 82302 10030 20002 39940 40248 57008 884// 91440 333 30/// 56899 59078 88611=
76253 32982 02302 10176 20065 30090 40187 5//// 91450 333 30/// 59019 92001=
76254 26/// /2304 10181 21004 30073 40170 53006 6 7 8 91450 333 0 1 2 30/// 4 59021 54 55 2 56 57 58 59 60007 7 8 8 8 9 9 9 444 555 10142 30158=
76255 26/// /0302 10097 20007 30155 40172 53010 7//// 8//// 91450 333 0//// 30/// 4//// 54/// 56/// 57/// 59008 60007 8//// 8//// 8//// 9//// 9//// 9//// 444 ///// 555 10092=
76256 32980 03602 10092 20047 30166 40180 52006 91450 333 30/// 58006=
76304 26/// /2201 10115 20015 30158 40168 53008 7//// 8//// 91450 333 0//// 30/// 4//// 54/// 56/// 57/// 59015 60007 8//// 8//// 8//// 9//// 9//// 9//// 444 ///// 555 10100=
76305 32970 00000 10125 20019 30155 40163 52005 91450 333 30/// 59015=
76311 32980 01001 10088 20069 39878 40161 51009 91450 333 30/// 58005=
76312 26/// /0000 10113 20070 39897 40182 53016 6 7 8 91450 333 0 1 2 30/// 4 59006 54 55 2 56 57 58 59 60007 7 8 8 8 9 9 9 444 555 10082 30095=
76323 32960 00000 11004 21028 38302 40305 52011 91445 333 30/// 59014=
76342 32962 01801 10032 21020 39521 40268 57005 91440 333 30/// 59069=
76382 32980 00000 10042 20016 38950 40249 52010 91445 333 30/// 59025=
76383 26/// /3201 10049 20019 38960 40263 52008 6 7 8 91450 333 0 1 2 30/// 4 59026 54 55 2 56 57 58 59 60007 7 8 8 8 9 9 9 444 555 10004 30043=
76390 31568 12401 10112 20029 38256 40209 52012 70544 81600 91455 333 30/// 56300 59004 81720=
76392 26/// /2202 10085 20035 39641 40245 53001 7//// 8//// 91450 333 0//// 30/// 56/// 57/// 59077 60007 8//// 8//// 8//// 8//// 9//// 9//// 9//// 555 10134 30073=
76393 31910 02301 10064 20047 39636 40239 57001 70400 91450 333 30/// 58///=
76402 31962 03601 10114 20092 30112 40170 5//// 70544 91445 333 30/// 59014=
76403 26/// /3601 10107 20107 30109 40170 51007 7//// 8//// 91450 333 0//// 30/// 4//// 54/// 56/// 57/// 59013 69927 8//// 8//// 8//// 9//// 9//// 9//// 444 ///// 555 10104=
76404 26/// /1901 10125 20075 30148 40172 52014 7//// 8//// 91450 333 0//// 30/// 4//// 54/// 56/// 57/// 59006 60007 8//// 8//// 8//// 9//// 9//// 9//// 444 ///// 555 10121=
76405 32975 01901 10124 20108 30153 40175 52011 91445 333 30/// 59005=
76412 32966 01001 10110 20110 30143 40190 52008 91450 333 30/// 58002=
76413 26/// /0801 10111 20111 30145 40192 52009 6 7 8 91450 333 0 1 2 30/// 4 59005 54 55 2 56 57 58 59 60007 7 8 8 8 9 9 9 444 555 10105 30125=
76423 32980 00000 10007 21009 38181 40252 52010 91450 333 30/// 58007=
76424 26/// /1701 10058 21024 38184 40289 53013 7//// 8//// 91450 333 0//// 30/// 4//// 54/// 56/// 57/// 58008 60007 8//// 8//// 8//// 9//// 9//// 9//// 444 ///// 555 10013=
76458 31970 11701 10154 20143 30156 40161 53004 74140 80004 91443 333 30/// 56009 59001 81072=
76459 26/// ///// 10160 2//// 3//// 4//// 5//// 6 7 8 91450 333 0 1 2 30/// 4 5 54 55 2 56 57 58 59 6///7 7 8 8 8 9 9 9 444 555 10095 30129=
76471 32966 00000 10066 20032 37704 40192 52007 91448 333 30/// 59004 98766=
76491 32460 83601 10068 20066 39857 40268 52009 885// 91450 333 30/// 56999 59080 88620=
76499 31456 83501 10084 20084 30213 40239 52010 70222 88600 91455 333 32/// 56800 59078 88710=
76525 32980 01905 10069 20019 37478 40179 51005 91450 333 30/// 59008=
76538 26/// /0201 10084 20052 38192 40276 53007 7//// 8//// 91450 333 0//// 30/// 4//// 54/// 56/// 57/// 59020 60007 8//// 8//// 8//// 9//// 9//// 9//// 444 ///// 555 10050=
76539 31562 50000 10089 20050 38180 40234 52005 70544 85500 91445 333 30/// 56700 59018 85622=
76547 26/// /2701 10122 20115 30228 40242 51007 7//// 8//// 91450 333 0//// 30/// 4//// 54/// 56/// 57/// 59073 69927 8//// 8//// 8//// 9//// 9//// 9//// 444 ///// 555 10108=
76548 21465 82901 10116 20112 30240 40250 50006 70255 88700 91445 333 32/// 56300 59071 69927 88713=
76556 32970 10000 10124 20089 39133 40168 52003 80001 91445 333 30/// 56006 59006 81070=
76557 22/// ///// 1//// 2//// 3//// 4//// 5//// 7//// 8//// 9//// 333 0//// 30/// 4//// 54/// 56/// 57/// 5//// 6//// 8//// 8//// 8//// 9//// 9//// 9//// 444 ///// 555 1////=
76571 32975 00000 10070 20039 38192 40239 52009 91450 333 30/// 59014=
76573 31960 03503 10096 20050 38156 40241 52014 70500 91455 333 30/// 59011=
76574 26/// /3503 10100 20043 38151 40273 52014 7//// 8//// 91450 333 0//// 30/// 4//// 54/// 56/// 57/// 59012 60007 8//// 8//// 8//// 9//// 9//// 9//// 444 ///// 555 10075=
76577 32570 30000 10110 20053 38067 40210 5//// 83500 91445 333 30/// 56500 59011 83624=
76580 26/// ///// 10123 20092 39107 40245 53009 7//// 8//// 91450 333 0//// 30/// 4//// 54/// 56/// 57/// 59040 60007 8//// 8//// 8//// 9//// 9//// 9//// 444 ///// 555 10121=
76581 32470 60000 10116 20101 39094 40225 52009 82720 91450 333 30/// 56110 59036 82718 84459=
76585 32580 70000 10130 20119 30074 40235 53004 878// 91450 333 30/// 56299 59064 87827=
76592 26/// /0802 10206 20156 30239 40243 5//// 7//// 8//// 91450 333 0//// 30/// 4//// 54/// 56/// 57/// 59019 60007 8//// 8//// 8//// 9//// 9//// 9//// 444 ///// 555 10176=
76593 32470 31403 10206 20156 30235 40237 52011 83200 91450 333 30/// 56300 59025 83820 91005 91514=
76611 26/// /0000 10094 20094 38499 40213 52015 6 7 8 91450 333 0 1 2 30/// 4 59006 54 55 2 56 57 58 59 60007 7 8 8 8 9 9 9 444 555 10079 30097=
76612 32962 00901 10100 20092 38494 40210 52014 91450 333 30/// 59005=
76625 32970 02701 10088 20065 38167 40189 52013 91450 333 30/// 59021=
76626 26/// /0904 10073 20044 38096 40300 52015 7//// 8//// 91450 333 0//// 30/// 4//// 54/// 56/// 57/// 59014 60007 8//// 8//// 8//// 9//// 9//// 9//// 444 ///// 555 10050=
76631 26/// /2701 10082 20019 37725 40293 52012 7//// 8//// 91450 ICE///// 333 0//// 30/// 4//// 54/// 56/// 57/// 590 15 60007 8//// 8//// 8//// 9//// 9//// 9//// 444 ///// 5=
76632 31956 32601 10064 20010 37724 40237 52012 70511 80004 91445 333 30/// 56006 59014 83083 96122=
76634 31968 11401 10104 20036 37875 40247 52010 70500 80001 91454 333 30/// 56005 59024 81070=
76640 21158 82201 10136 20132 30245 40258 52025 75055 83720 91445 333 31/// 56330 59062 69907 83702 85540=
76641 26/// /0000 10138 20136 30233 40245 52009 6 7 8 91450 333 0 1 2 30/// 4 59064 54 55 2 56 57 58 59 60007 7 8 8 8 9 9 9 444 555 10137 30145=
76644 31860 70603 10205 20171 30230 40242 52012 70222 85076 91450 333 30/// 56000 59013 85358=
76647 32870 70501 10190 20156 30203 40235 51011 8703/ 91450 333 30/// 56059 59017 87358=
76648 22/// ///// 1//// 2//// 3//// 4//// 5//// 7//// 8//// 9//// 333 0//// 30/// 4//// 54/// 56/// 57/// 5//// 6//// 8//// 8//// 8//// 9//// 9//// 9//// 444 ///// 555 1////=
76653 26/// /0103 10230 20139 30148 40152 52014 6 7 8 91450 333 0 1 2 30/// 4 59003 54 55 2 56 57 58 59 60007 7 8 8 8 9 9 9 444 555 10197 30226=
76654 31856 40102 10229 20140 30141 40145 53001 70544 83041 91445 333 30/// 56099 58016 83357=
76656 32975 00000 10074 20063 38538 40211 52013 91450 333 30/// 59003=
76658 31960 20501 10205 20107 39662 40174 52009 70541 80002 91450 333 30/// 59003 82070 98904=
76659 26/// /0701 10219 20128 39654 40160 53014 6 7 8 91450 333 0 1 2 30/// 4 59004 54 55 2 56 57 58 59 60007 7 8 8 8 9 9 9 444 555 10172 30197=
76662 31968 00902 10080 20062 38495 40220 52016 70542 91442 333 30/// 58009=
76665 32960 00701 10070 20051 38151 40223 52007 91445 333 30/// 59011=
76674 26/// /3601 10062 21044 37397 40316 53010 7//// 8//// 91450 333 0//// 30/// 54/// 56/// 57/// 59010 60007 8//// 8//// 8//// 9//// 9//// 9//// 444 ///// 555 11034 30093=
76675 31980 23601 10011 21044 37392 40281 52008 70244 80004 91445 333 34/// 56005 59011 82073 96005 98480=
76680 31920 13001 10092 20045 37777 40207 53011 70511 80008 91455 333 30/// 56003 59019 81270=
76681 31960 10000 10060 20045 37799 40217 52015 70510 80001 91445 333 30/// 56000 81070=
76683 32970 40902 10037 21012 37856 40287 51006 80004 91445 333 30/// 56005 59015 84072=
76684 26/// /1002 10056 20001 37858 40345 53006 7//// 8//// 91450 333 0//// 30/// 4//// 54/// 56/// 57/// 59015 60007 8//// 8//// 8//// 9//// 9//// 9//// 444 ///// 555 10003=
76685 32970 40000 10068 20032 37890 40224 52009 80001 91450 333 30/// 56002 59015 84077=
76686 26/// /0801 10094 20028 37896 40205 53008 6 7 8 91450 333 0 1 2 30/// 4 59015 54 55 2 56 57 58 59 60007 7 8 8 8 9 9 9 444 555 10022 30103=
76687 31570 71801 10110 20103 38710 40228 52012 70242 87500 91445 333 30/// 56300 59023 87622=
76688 26/// /2701 10113 20113 38711 40256 53011 7//// 8//// 91450 333 0//// 30/// 4//// 56/// 57/// 59022 69927 8//// 8//// 8//// 9//// 9//// 9//// 444 ///// 555 10100 30154=
76692 31556 82701 10182 20153 30210 40228 52009 71042 85250 91445 333 30/// 56880 59043 85820 83358=
76693 /0000 26/// /2801 10188 20150 30214 42/// 53013 60001 7//// 8//// 91450 333 30/// 56/// 57/// 59042 8//// 8//// 9//// 9//// 9//// 555 10174 30205=
76695 31460 70802 10197 20166 30229 40235 52006 70222 85530 91452 333 30/// 56100 59017 85610=
76696 26/// /0802 10198 20146 30228 40242 53008 7//// 8//// 91450 333 0//// 30/// 4//// 54/// 56/// 57/// 59018 60007 8//// 8//// 8//// 9//// 9//// 9//// 444 ///// 555 10169=
76698 32360 40102 10196 20159 30223 40235 52018 83250 91440 333 30/// 56890 58000 83808=
76726 31970 00000 10119 21001 38419 40189 52003 70000 91450 333 30/// 59022=
76737 31880 81201 10132 20111 38822 40231 52009 70222 8807/ 91445 333 30/// 56029 59027 88358 90227 90312 91103 91512 96722=
76741 31357 72301 10190 20185 30186 40204 52010 71044 85250 91445 333 31/// 56590 59031 85809=
76742 26/// /2701 10194 2//// 30193 40214 53012 7//// 8//// 91450 333 0//// 30/// 4//// 54/// 56/// 57/// 69927 8//// 8//// 8//// 444 ///// 555 10166 30199=
76743 31457 50903 10208 20170 30208 40216 53007 70211 85500 91450 333 30/// 56000 59042 85615=
76744 26/// /0903 10212 20172 30208 40217 53006 7//// 8//// 91450 333 0//// 30/// 4//// 54/// 56/// 57/// 59041 60007 8//// 8//// 8//// 9//// 9//// 9//// 444 ///// 555 10193=
76750 31560 83602 10197 20161 3//// 4//// 5//// 70302 82430 91450 333 30/// 56880 58/// 82620 86357=
76762 32904 32802 10158 20072 38794 40200 52011 80006 91450 333 30/// 56006 59018 83070=
76773 32570 30000 10096 20054 38454 40222 52008 81501 91445 333 30/// 56804 59017 81620=
76775 31570 43601 10132 20084 38568 40249 52013 70344 81236 91445 333 30/// 56406 59016 81217 83274=
76776 26/// /0401 1//// 2//// 3//// 4//// 5//// 6 7 8 91450 333 0 1 2 30/// 4 5 54 55 2 56 57 58 59 60007 7 8 8 8 9 9 9 444 555 10101 30168=
76805 31570 12501 10228 20173 30144 40149 52006 70100 81200 91450 333 30/// 56600 59017 81830=
76806 26/// /3102 10232 20182 3//// 4//// 5//// 7//// 8//// 91450 333 0//// 30/// 4//// 54/// 56/// 57/// 5//// 60007 8//// 8//// 8//// 9//// 9//// 9//// 444 ///// 555 10200=
76834 26/// /3610 10249 20138 30160 40169 52010 6 7 8 91450 333 0 1 2 30/// 4 59018 54 55 2 56 57 58 59 60007 7 8 8 8 9 9 9 444 555 10235 30255=
76840 32950 40108 10236 20198 30097 40154 52001 80006 91440 333 30/// 56009 59002 84070=
76843 32565 62002 10189 20145 39547 40204 52012 81132 91445 333 30/// 56799 59024 81821=
76845 32260 50402 10122 20111 37980 40229 51011 85600 91453 333 30/// 56200 59013 85705=
76848 32470 70502 10131 20093 38415 40166 52009 86505 91448 333 30/// 56109 59017 86616=
76849 26/// /0504 10187 20153 38423 40164 52014 7//// 8//// 91450 333 0//// 30/// 4//// 56/// 57/// 59013 60007 8//// 8//// 8//// 9//// 9//// 9//// 444 ///// 555 10105 30166=
76855 32580 31301 10264 20194 30088 40138 52006 81208 91445 333 30/// 56909 59008 81820 92000=
76856 26/// /0101 10294 20177 30095 40144 53011 6 7 8 91450 333 0 1 2 30/// 4 59005 54 55 2 56 57 58 59 60007 7 8 8 8 9 9 9 444 555 10215 30327=
76902 26/// /3101 10281 20173 30015 40152 51017 60001 7//// 8//// 2//// 333 0//// 30/// 56/// 57/// 60007 8//// 8//// 8//// 8//// 9//// 9//// 9//// 555 10249 30300=
76903 32981 00601 10233 20187 39996 40016 52017 91455 333 30/// 59017=
78224 41558 89901 10176 20163 30167 40243 50018 70544 8312/ 333 83830 88468=
78229 32559 70706 10201 20134 30171 40248 52030 87250 333 83825 87358=
78239 41559 70608 10230 20158 30230 40233 52020 70502 83832 333 83820 86640=
78243 32558 60605 10201 20136 30118 40243 52019 86270 333 83820 85357=
78255 42459 60408 10217 20158 30081 40230 52020 86500 333 86618=
78264 31459 40303 10253 20190 30122 40198 52020 70500 83230 333 83818 84357=
78265 41558 70606 10236 20212 30108 40208 52020 71564 85720 333 82710 84815 85458=
78704 31560 70000 10240 20206 30202 40207 71544 83570 333 56000 59015 83622 87458=
78764 32560 80913 10214 20144 39045 40138 52011 83570 333 30/// 56220 59005 83625 87360=
78767 31458 83405 10230 20213 30146 40151 52024 75152 83820 333 32/// 56000 59015 83815 88458=
78774 32670 80503 10276 20203 30045 40144 52023 83634 333 30/// 56223 59003 83645 83364=
78793 32470 52706 10288 20227 30080 40111 51010 81134 333 30/// 5681/ 59006 81815 83080/=
78795 32470 40000 10284 20214 30017 40117 52004 81101 333 31/// 560/0 59007 81810 83080/=
78846 41481 61011 10278 20210 30155 40197 71511 86843 333 58011 83818 83636=
78858 41476 51406 10271 20223 30133 40189 71582 85802 333 59011 83817 84646=
78862 41476 40909 10275 20221 30164 40187 70500 84200 333 58014 84818=
78906 41578 42703 10290 20212 30166 40171 72511 82401 333 58008 82822=
78925 44578 /1115 10293 20223 40175 50008 700// 333 58007=
78948 41579 51016 10289 20232 30168 40176 70511 85801 333 02206 58008 85826=
78982 21582 60918 10294 20236 40151 52010 70182 83201 333 58003 60007 83822 86081=



SMUS70 KWBC 191500
AAXX 19154
71032 26/// /0000 11063 21069 39277 40110 53011 333 60007=
71039 26/// /0000 11186 21205 39409 40091 52008 333 60007=
71043 42666 72804 11101 21118 39960 40054 53016 333 6///7=
71044 27/// /0505 11110 21117 39760 40083 53013 7//44 333 60017=
71045 26/// /0901 11140 21154 39206 40091 52007 333 60007=
71046 45/// /2730 11149 30104 40121 51025 333 6///7=
71048 26/// /2711 11047 21090 333 60007=
71050 26/// /0000 11159 21175 38981 40073 51009 333 60007=
71051 26/// ///// 11070 21099 333 60007=
71060 26/// /2903 11010 21112 38496 40015 53007 333 60007=
71062 26/// /2306 11002 21099 38937 40002 52003 333 60007=
71066 47666 83309 11084 21100 39568 49987 52018 771// 333 6///7=
71068 42774 52405 11042 21057 39302 49989 53010 333 6///7=
71072 45964 80802 11045 21048 39719 49964 57035 333 6///7=
71075 26/// /0904 11171 21189 39497 40017 53021 333 69927=
71076 26/// /0807 11123 21146 39602 49997 53015 333 69947=
71077 26/// /2803 10001 21015 39416 49950 51010 333 60007=
71078 47636 80707 11165 21179 39560 40011 52015 771// 333 6///7=
71079 42556 80510 11162 21191 39709 49996 52012 333 6///7=
71083 42658 80708 11231 21257 30077 40121 52006 333 6///7=
71084 452// 40907 333 6///7=
71085 45966 02521 11007 21057 38675 40047 57002 333 6///7=
71087 46/// /3501 11102 21116 39816 40021 52017 333 6///7=
71090 47124 83410 11258 21279 30177 40214 54000 710// 333 6///7=
71092 469// 00915 11218 21241 39475 40166 52004 333 6///7=
71093 45/// ///// 11227 39664 40181 55000 333 6///7=
71094 461// 23632 333 6///7=
71095 45966 01606 11324 21359 30144 40231 52005 333 6///7=
71096 45/// /3212 11226 39410 40169 56005 333 6///7=
71097 461// 80540 11175 21194 39584 40071 57001 333 6///7=
71098 26/// /2309 11052 21082 39580 40113 56007 333 60007=
71101 27/// /1314 10070 20053 39978 49986 51012 7//4/ 333 60027=
71104 42974 21205 11036 21058 38950 40057 52007 333 6///7=
71105 26/// ///// 11013 21048 333 60007=
71106 46/// /0104 11137 21145 333 6///7=
71108 42674 81202 10055 20018 30022 40095 51006 333 6///7=
71109 42474 81124 10064 20029 39955 49981 53002 333 6///7=
71111 47559 81315 10069 20059 39982 49990 52012 7614/ 333 6///7=
71112 27/// ///// 7//4/ 333 69907=
71113 26/// /3101 10007 20005 30069 40093 51005 333 60007=
71114 46/// /0402 10007 20005 30053 40101 52009 333 6///7=
71115 26/// /0701 11027 21030 39512 40096 53005 333 60007=
71121 25964 02506 11024 21087 39183 49998 51003 333 60007=
71122 26/// /2304 11056 21077 38457 40060 51001 333 60007=
71123 42874 72509 11016 21077 39145 40008 55000 333 6///7=
71125 42574 82611 10009 21011 39380 49961 51005 333 6///7=
71127 26/// /2508 11015 21082 39097 49991 52002 333 60007=
71129 42974 12606 11065 21096 39186 40013 51002 333 6///7=
71130 45266 80502 11098 21107 39507 49967 52003 333 6///7=
71131 26/// /2806 11078 21098 38793 40048 53010 333 60007=
71132 47866 70809 11152 21176 39702 40020 52019 771// 333 6///7=
71133 26/// /2710 11001 21031 39257 49952 51006 333 60007=
71135 26/// /2611 11022 21054 38954 40030 53008 333 60007=
71136 26/// /2714 10022 21016 39473 49970 53010 333 60007=
71137 26/// /2506 11028 21068 39105 40044 53006 333 60007=
71139 26/// /2809 11011 21100 38580 40021 53005 333 60007=
71140 42974 62717 10018 21017 39473 49971 53011 333 6///7=
71142 45966 02715 11017 21059 39056 40016 52007 333 6///7=
71145 42362 80206 11101 21119 39637 49932 53002 333 6///7=
71147 26/// /2712 10044 21009 333 60007=
71148 26/// /2608 10042 21014 39399 49971 55007 333 60007=
71150 26/// /2913 10001 21023 39295 49967 51010 333 60007=
71151 26/// /2006 11024 21039 39434 49933 58011 333 60007=
71153 26/// /2414 10005 21064 333 60007=
71154 26/// /2320 11006 21050 333 60007=
71157 26/// /2504 11010 21071 39201 49997 53003 333 60007=
71158 26/// /3207 11088 21099 39656 49933 53019 333 60007=
71160 26/// /0604 11195 21237 39831 40049 52014 333 60007=
71161 26/// /2207 11032 21058 39972 40122 53003 333 60007=
71162 26/// /0409 39792 53014 333 60007=
71163 46/// /0203 11116 21129 39681 40025 52013 333 6///7=
71167 45966 72502 11069 21099 38925 40017 52005 333 6///7=
71168 26/// /1705 11019 21036 39452 40029 55013 333 60007=
71170 26/// ///// 10027 21014 39486 49949 53001 333 60007=
71176 45/// ///// 39281 50006 333 6///7=
71180 26/// /3414 11034 21071 30019 40058 53002 333 60007=
71183 26/// /1905 11033 21053 30081 40121 55002 333 60007=
71185 25/// ///// 11067 21145 30020 40044 50005 333 60007=
71186 46/// ///// 11114 21133 333 6///7=
71187 45166 70503 10006 20005 30054 40102 52008 333 6///7=
71188 42974 52507 11109 21168 30066 40110 50008 333 6///7=
71189 46/// /0907 11112 21138 333 6///7=
71196 26/// /1502 11043 21060 39904 40105 55001 333 60007=
71200 26/// /1103 10054 20046 39992 40076 53002 333 60007=
71201 27/// ///// 10068 20049 7//4/ 333 69947=
71203 45966 82101 11036 21042 39586 40110 52011 333 6///7=
71207 27/// /0000 10034 20033 30017 40081 51005 7//4/ 333 69947=
71211 26/// /0106 10055 20046 30073 40082 53004 333 69927=
71215 26/// /1405 10035 20009 39768 40111 53011 333 60007=
71216 26/// /1102 10010 20003 39477 40093 53006 333 60007=
71218 26/// /2202 11016 21016 39665 40094 53008 333 60007=
71222 26/// /0706 11084 21097 39095 40067 51010 333 60007=
71230 26/// /2404 11011 21057 39109 49993 53005 333 60007=
71231 26/// /2508 11015 21068 333 60007=
71232 26/// /2507 11006 21112 38538 40020 53007 333 60007=
71234 26/// /2810 11028 21084 38866 40050 51004 333 60007=
71235 46/// /2609 11009 21113 333 6///7=
71236 46/// /2802 11031 21042 333 6///7=
71238 26/// /2802 11015 21077 333 60007=
71239 26/// /2714 10033 21012 39508 49959 55003 333 60007=
71240 26/// /2208 11037 21105 39178 40019 51009 333 60007=
71242 26/// /2103 11069 21104 333 60007=
71243 26/// /2614 10013 21053 38985 40056 50005 333 60007=
71244 26/// /3114 10002 21048 38827 40043 53013 333 60007=
71247 45966 22110 11017 21053 39190 40039 52003 333 6///7=
71248 26/// /2801 11094 21133 38732 40035 53005 333 60007=
71249 26/// /2605 11051 21104 333 60007=
71250 26/// /0309 11021 21046 39875 40011 58011 333 60007=
71251 46/// /2511 10004 21041 39126 40044 53004 333 6///7=
71252 26/// /1101 11058 21080 38455 40027 53004 333 60007=
71254 26/// /2406 11026 21086 39124 49999 53002 333 60007=
71255 26/// /0307 11041 21057 333 60007=
71260 42362 81605 11009 21027 39819 40056 56013 333 6///7=
71261 26/// /2013 11041 21068 39859 40124 55000 333 60007=
71263 42574 62316 11031 21071 39847 40141 55005 333 6///7=
71265 45966 42416 11019 21067 30044 40139 57002 333 6///7=
71270 26/// /2209 11012 21055 39889 40112 53002 333 60007=
71271 26/// /2406 11013 21045 333 60007=
71272 47266 80706 11202 21220 39695 40060 52010 771// 333 6///7=
71273 26/// /2606 10004 21031 39310 49960 53009 333 60007=
71282 46/// /2216 11037 21061 39839 40113 53001 333 6///7=
71284 26/// ///// 11018 21077 333 60007=
71290 45666 81604 11006 21006 39203 40028 52006 333 6///7=
71319 26/// /2004 11097 21099 39214 40092 50003 333 60007=
71323 26/// /2202 11050 21067 39829 40114 51005 333 60007=
71368 45966 72110 11045 21083 39739 40135 57004 333 6///7=
71370 46/// /2107 11050 21070 39968 40106 53002 333 6///7=
71371 47448 81805 11035 21051 30092 40127 54000 710// 333 6///7=
71372 26/// /1710 11037 21062 333 60007=
71373 26/// /1805 11051 21071 39847 40126 53003 333 60007=
71375 46/// /3204 11140 333 6///7=
71376 26/// /2303 11057 21064 39821 40121 53002 333 60007=
71377 26/// /1903 11036 21052 30073 40122 58003 333 60007=
71378 26/// /1803 11053 21066 39888 40100 55002 333 60007=
71379 26/// /1105 11117 21139 39918 40093 55001 333 60007=
71382 27/// /1903 11091 21096 39133 40092 50002 7//4/ 333 60027=
71384 26/// /2501 11049 21059 30111 40119 50002 333 60007=
71385 46/// /0605 11097 21128 333 6///7=
71386 26/// /3501 11126 21167 39904 40116 53003 333 60007=
71389 26/// /1902 11048 21059 333 60007=
71390 46/// /2904 11152 333 6///7=
71391 26/// ///// 11048 21071 333 60007=
71392 26/// /2204 11051 333 60007=
71395 42574 53511 11074 21098 39921 40103 50003 333 6///7=
71398 47566 80908 11149 21165 30031 40043 57033 771// 333 6///7=
71400 27/// /2902 11061 21096 39912 40043 50004 7//4/ 333 69967=
71402 26/// /3112 11050 21102 39921 40036 53002 333 60007=
71410 47964 /3605 11111 21127 39676 49957 52019 771// 333 6///7=
71412 26/// /3414 11044 21081 30087 40097 53012 333 60007=
71419 46/// /3511 11034 21069 30073 40083 50019 333 6///7=
71424 46/// /2307 333 6///7=
71425 26/// /2809 11106 21144 30071 40108 55000 333 60007=
71426 46/// /0206 11081 21102 333 6///7=
71427 26/// /3603 11130 21181 30116 40124 53001 333 60007=
71428 26/// /2005 11130 21159 30113 40119 55002 333 60007=
71430 26/// /2619 11001 21036 30036 40134 53004 333 60007=
71431 26/// /2712 11007 21047 30026 40123 57003 333 60007=
71432 26/// /2311 11006 21060 30044 40142 58003 333 60007=
71434 27/// /0905 11206 21229 39966 40035 56020 7//4/ 333 69927=
71435 26/// /2408 11013 21043 39365 49951 56014 333 60007=
71436 45666 82206 11027 21062 39887 40125 57004 333 6///7=
71437 46/// ///// 11014 21067 30043 40139 56005 333 6///7=
71440 26/// /2413 11037 21110 333 60007=
71441 26/// /2511 10036 21011 39653 49960 55006 333 60007=
71442 26/// /3004 11026 21037 39623 49935 53007 333 60007=
71443 26/// /0704 11078 21087 39555 49970 51027 333 60007=
71444 26/// /2806 10005 21019 39211 49960 53008 333 60007=
71445 26/// /3412 11099 21111 39661 49940 53016 333 69907=
71446 26/// /2517 11017 21065 39048 40016 51008 333 60007=
71447 26/// /2609 10028 21017 39457 49996 53015 333 60007=
71448 26/// /2506 10033 21012 39607 49932 55004 333 60007=
71451 26/// /0702 11148 39563 49995 53011 333 60007=
71452 26/// /2908 11012 21049 39306 40009 53008 333 60007=
71453 26/// /2507 10004 21062 39132 40035 53005 333 60007=
71454 26/// /2904 11005 21012 39265 49950 52004 333 60007=
71455 26/// /2411 11041 21062 39220 40010 53010 333 60007=
71456 26/// /2712 10000 21013 39369 49957 55000 333 69937=
71457 26/// /2610 11025 21077 39138 40021 53003 333 60007=
71458 26/// /2507 11018 21065 39225 49986 51002 333 60007=
71459 26/// /2406 11063 21092 39219 40025 53008 333 60007=
71460 46/// /2308 10001 21020 39849 40091 58003 333 6///7=
71461 26/// /2708 10002 21023 333 60007=
71463 46/// /2425 11029 21083 39923 40150 58002 333 6///7=
71465 46/// ///// 333 6///7=
71473 26/// /1624 10068 20040 30045 40075 55001 333 60007=
71474 26/// /1601 11063 21069 38835 40065 51006 333 60007=
71475 26/// /1105 10044 20038 39961 40054 52003 333 60027=
71476 26/// /0526 10067 20040 39984 49996 51008 333 69927=
71477 26/// /0613 10063 20050 39986 49994 51010 333 60007=
71481 26/// /2604 11041 21085 333 60007=
71485 26/// /1241 10078 20036 39940 49957 58003 333 60007=
71486 26/// /1902 11030 21050 38848 40042 52004 333 60007=
71487 26/// /2711 11017 21056 39162 40020 52010 333 60007=
71488 26/// /2411 11014 21081 38492 40029 57006 333 60007=
71492 46/// /1802 11108 21132 39355 40047 50004 333 6///7=
71496 26/// /2208 11049 21064 39378 49985 53010 333 60007=
71498 26/// /2109 11081 21119 333 60007=
71499 47556 80909 11125 21144 39346 49978 52014 771// 333 6///7=
71503 46/// /2502 11103 21115 39782 40054 53017 333 6///7=
71505 26/// /0000 11254 21281 39339 40098 53007 333 60007=
71510 26/// /2605 11061 21078 39301 40005 53012 333 60007=
71511 26/// /2611 11017 21039 39353 49982 53007 333 60007=
71512 26/// /3201 11123 21181 30094 40109 51003 333 60007=
71513 45966 00106 11155 21197 30075 40091 52006 333 6///7=
71514 26/// /2610 11048 21075 39314 40008 53010 333 60007=
71516 26/// /2613 11002 21037 39127 40018 52008 333 60007=
71524 26/// /2309 11034 21058 30103 40130 53002 333 60007=
71527 45966 42008 11031 21039 39430 49932 57020 333 6///7=
71538 42974 32317 11028 21086 39914 40149 55002 333 6///7=
71550 26/// /0107 11038 21049 39583 49953 53021 333 60007=
71551 26/// /2507 11026 21054 39349 49995 51009 333 60007=
71552 46/// /2314 11017 21033 333 6///7=
71564 26/// /2611 10048 21011 39592 49951 55009 333 60007=
71569 26/// /2611 11033 21061 39300 49994 52007 333 60007=
71571 26/// /2809 11008 21034 38804 49983 51009 333 60007=
71573 26/// /2208 11030 21074 39856 40143 56003 333 60007=
71577 46/// /2406 11021 21029 333 6///7=
71578 26/// /2405 333 60007=
71579 26/// /2104 10033 21010 39657 49937 55005 333 60007=
71585 26/// /2705 11002 21020 39491 49937 53012 333 60007=
71586 26/// /0607 11094 21107 39494 49961 53007 333 60007=
71587 45366 80803 11080 21085 39549 49908 57013 333 6///7=
71588 26/// /3103 11053 333 60007=
71589 26/// /3204 11048 21072 39893 40026 50003 333 60007=
71597 47948 00911 11325 21360 30105 40171 52006 704// 333 6///7=
71599 26/// /0001 11045 21061 39960 40118 51010 333 60007=
71603 42574 80105 11030 21063 30073 40127 51012 333 6///7=
71604 26/// /3206 11084 21088 333 60007=
71605 26/// /2104 10049 20045 39937 40086 53005 333 60037=
71607 26/// /2502 11073 21093 30102 40135 53009 333 60007=
71608 26/// /1106 10067 20039 30080 40083 53004 333 69907=
71609 42574 83508 11090 21102 39990 40128 50008 333 6///7=
71610 47359 82206 11043 21060 39826 40126 52001 771// 333 6///7=
71611 26/// /2007 11037 21055 333 60007=
71612 26/// /2004 11031 21055 30031 40122 55002 333 60007=
71616 26/// /2110 11044 21056 30000 40122 50002 333 60007=
71618 45466 80708 11161 21178 30018 40057 52001 333 6///7=
71619 26/// /3303 11113 21169 30055 40115 51006 333 60007=
71623 42969 32213 11044 21093 39801 40145 55003 333 6///7=
71624 42969 62412 11028 21083 39921 40137 55001 333 6///7=
71625 25456 81306 11041 21068 39944 40107 56002 333 60007=
71627 42459 81906 11034 21058 30079 40124 58003 333 6///7=
71628 42461 82107 11043 21064 39979 40122 53002 333 6///7=
71629 26/// /1006 11280 21315 30192 40206 53008 333 69927=
71631 26/// /2208 11060 21085 39616 40125 56001 333 60007=
71632 26/// /0705 11165 21185 39561 40009 51015 333 69927=
71633 42462 82012 11021 21039 39832 40107 53002 333 6///7=
71634 26/// /3404 11109 21144 39967 40125 53002 333 60007=
71638 26/// /1211 10055 20036 39971 40076 53004 333 69927=
71642 42374 81909 11024 21034 39481 40029 57020 333 6///7=
71675 47/16 /0908 11148 21167 39665 49948 57022 771// 333 6///7=
71700 45966 00403 11091 21099 30105 40131 52011 333 6///7=
71701 25/64 /0102 11090 21108 30067 40131 51012 333 60007=
71702 26/// /3308 11085 21101 30092 40108 51005 333 60007=
71705 42574 63308 11095 21129 30030 40120 53008 333 6///7=
71706 42459 83207 11069 21085 30038 40100 50007 333 6///7=
71707 42474 83611 11046 21078 39997 40074 50016 333 6///7=
71709 42580 53511 11069 21114 30079 40092 50007 333 6///7=
71710 26/// /3410 11068 21116 30080 40090 50006 333 60007=
71712 26/// /2308 11021 21059 30062 40124 55002 333 60007=
71713 26/// /0000 11077 21102 30071 40110 50002 333 60007=
71714 26/// /2503 11051 21070 30043 40119 51003 333 60007=
71715 26/// /0000 11096 21118 39931 40117 50002 333 69927=
71716 27332 82702 11063 21079 39906 40118 53004 771// 333 60007=
71717 45966 01609 11041 21055 38751 40061 52005 333 6///7=
71718 42574 83606 11118 21154 30064 40132 53005 333 6///7=
71719 26/// /3206 11092 21135 30110 40116 50005 333 60007=
71720 46/// ///// 10058 20036 39903 40054 51004 333 6///7=
71721 26/// /1805 11050 21065 39854 40103 50002 333 60007=
71723 26/// /2107 11035 21059 30104 40114 53003 333 60007=
71724 26/// /2214 11033 21049 30105 40113 51002 333 60007=
71725 26/// /1807 11036 21043 39643 40064 58006 333 60007=
71726 26/// /2305 11058 21067 39537 40085 53004 333 60007=
71728 42482 81103 11113 21141 39881 40109 56006 333 6///7=
71730 42132 42209 11020 21026 39643 40071 58003 333 6///7=
71731 47/01 /2112 11034 21034 39629 40083 52002 7734/ 333 6///7=
71733 26/// /2208 11020 21025 39643 40073 58003 333 60007=
71734 27/// /1906 11032 21032 39657 40051 58009 7//4/ 333 60017=
71738 42474 72012 10001 21027 39664 40017 58019 333 6///7=
71739 42/24 /1906 11029 21035 39663 40028 57018 333 6///7=
71747 26/// /2403 11004 21038 39488 49958 56011 333 60007=
71748 26/// /2205 11049 21057 39649 49932 53002 333 60007=
71750 26/// /2108 10009 21012 39747 49980 56035 333 60007=
71751 46/// /2008 11002 21012 39698 49954 56034 333 6///7=
71768 26/// /2906 11011 21041 39559 40109 53011 333 60007=
71769 26/// /1228 10074 20052 30041 40057 53002 333 60007=
71770 26/// /0902 10005 20002 39334 40106 53005 333 69927=
71772 26/// /1523 10074 20049 30056 40067 53001 333 60007=
71774 26/// ///// 10027 20017 39628 40065 53004 333 60007=
71775 26/// /0306 10056 20040 30089 40095 52006 333 60007=
71776 27/// /2005 10009 20006 39459 40101 53007 7//4/ 333 69927=
71777 26/// ///// 10003 20003 39831 40080 51008 333 60007=
71778 46/// /0007 10057 20040 30038 40076 53003 333 6///7=
71780 26/// /0903 10062 20032 30046 40076 53004 333 60007=
71781 46/// /1234 10073 20041 30018 40042 53003 333 6///7=
71782 46/// /1906 11015 21022 38757 40077 56005 333 6///7=
71783 26/// /3001 10029 20024 30004 40077 53003 333 60007=
71784 46/// /0704 10048 20022 39882 40088 53004 333 6///7=
71785 46/// /1405 10073 20025 30079 40095 53005 333 6///7=
71786 26/// /2613 11066 21070 38244 40057 53002 333 60007=
71799 42480 81210 10062 20040 30056 40080 50002 333 6///7=
71800 26/// /0320 11009 21021 39968 40001 58017 333 60007=
71801 42474 80313 11025 21055 39844 40017 58012 333 6///7=
71803 42580 73008 11063 21098 39847 40035 50002 333 6///7=
71805 22570 70217 11022 21077 30025 40034 50004 82501 333 48004 60007 82620 87071 90710 91126 93100 555 60005=
71808 42974 13203 11106 21167 39992 40039 55002 333 6///7=
71809 42574 42605 11043 21104 30025 40053 50002 333 6///7=
71810 26/// /0304 11129 21175 30032 40100 53001 333 60007=
71813 26/// /0006 11156 21207 30074 40088 53006 333 60007=
71814 26/// /3309 11134 21181 30060 40070 53006 333 60007=
71815 42569 73208 11042 21074 30029 40060 50002 333 6///7=
71818 42974 02207 11138 21176 30009 40027 50008 333 6///7=
71819 45966 02810 11097 21130 39988 40030 57002 333 6///7=
71820 26/// /2308 11019 21051 30015 40131 53003 333 60007=
71821 27/// /1406 11116 21131 39698 40052 58022 7//4/ 333 69907=
71823 27/// /0000 11278 21313 39710 40111 58002 7//4/ 333 69937=
71825 45966 02806 11208 21247 39397 40098 52008 333 6///7=
71826 26/// /1108 11153 21229 30079 40123 57004 333 60007=
71827 42974 81007 11234 21262 39829 40085 58016 333 6///7=
71829 26/// /3309 11172 21211 39955 40123 55000 333 60007=
71831 42232 61304 11069 21077 39726 40009 58032 333 6///7=
71832 26/// /1303 11067 21077 39662 49990 56037 333 69907=
71834 42269 81808 11028 21036 39523 49951 57045 333 6///7=
71840 26/// /2617 10045 21005 39540 49951 55003 333 60007=
71842 42974 72205 11035 21048 39469 49937 56009 333 6///7=
71845 42359 81807 11061 21069 39443 49916 58019 333 6///7=
71846 26/// /1108 11129 21144 39633 49952 56033 333 60007=
71850 42974 62006 11027 21041 39440 49936 57011 333 6///7=
71851 26/// /2512 10046 21013 39613 49943 55002 333 60007=
71854 42574 72205 11050 21063 39445 49915 58011 333 6///7=
71855 26/// /2203 11031 21041 39410 49942 58010 333 60007=
71856 26/// /3101 11051 21095 39795 40046 50001 333 60007=
71858 26/// /3204 11108 21122 39682 49966 51022 333 60007=
71861 26/// /2608 11005 21034 39274 49988 51024 333 60007=
71862 42974 72509 10012 21028 39320 40015 50009 333 6///7=
71865 26/// /2410 11018 21043 39302 49973 51005 333 60007=
71867 42474 83303 11119 21142 39636 49975 53014 333 6///7=
71869 42348 42708 10001 21008 39444 49964 52004 333 6///7=
71871 45966 72712 11025 21067 39187 49986 52007 333 6///7=
71872 26/// /2303 11279 21307 30159 40260 51011 333 60007=
71876 45966 02710 11017 21065 39332 49991 52003 333 6///7=
71877 42886 21905 11050 21122 38757 40044 51004 333 6///7=
71878 42974 72106 11059 21106 38959 40032 51003 333 6///7=
71880 42280 32402 11039 21049 38984 40096 51001 333 6///7=
71882 27/// /0501 10003 20003 39557 40094 53006 7//44 333 69947=
71883 26/// /0301 11013 39264 40082 53006 333 60007=
71884 26/// ///// 11028 21060 30080 40125 51011 333 60007=
71886 26/// /2709 11006 21025 39372 49971 51016 333 60007=
71887 42986 51206 10010 21020 39665 40085 52011 333 6///7=
71889 42574 60103 10002 21019 39691 40110 53012 333 6///7=
71890 26/// /3206 11153 21199 30102 40131 53001 333 60007=
71892 42574 81212 10066 20039 30084 40089 53004 333 6///7=
71894 27/// /1530 10066 20055 39996 40005 56004 7//44 333 60057=
71896 45966 81808 10008 21039 39212 40035 52008 333 6///7=
71900 26/// /1508 11172 21223 30017 40030 51008 333 69927=
71902 42974 02710 11180 21246 30002 40011 50006 333 6///7=
71904 26/// ///// 11037 21107 333 60007=
71905 26/// /0000 11056 21060 39151 40090 53003 333 69927=
71906 42674 72302 11226 21256 30008 40062 52003 333 6///7=
71911 469// 01118 333 6///7=
71912 42448 70410 11187 21210 39818 40007 53005 333 6///7=
71915 42569 80618 11253 21282 30041 40126 51001 333 6///7=
71917 42974 02603 11290 21324 30203 40218 52003 333 6///7=
71918 45/// /0915 11310 39734 40178 53002 333 6///7=
71920 26/// /3405 11018 21050 30113 40119 50007 333 69927=
71922 42232 8//// 11095 21110 39499 49968 52008 333 6///7=
71923 26/// /0000 11205 21230 39616 40074 51006 333 60007=
71924 42974 01208 11271 21304 30108 40202 51009 333 6///7=
71925 42169 20606 11350 21385 30125 40169 53007 333 6///7=
71926 42562 80806 11236 21264 30109 40134 53002 333 6///7=
71928 26/// /0000 11062 21101 38862 40018 53005 333 60007=
71930 42774 52706 11021 21077 39077 40002 51005 333 6///7=
71932 26/// /2406 11041 21076 39726 40127 55001 333 60007=
71933 26/// /0000 11047 21052 39209 40035 51010 333 60007=
71934 42459 80602 11077 21091 39728 49985 52017 333 6///7=
71935 42648 83404 11104 21117 39804 40014 52016 333 6///7=
71936 42462 80406 11123 21148 39759 40022 52016 333 6///7=
71938 42769 70111 11182 21204 30054 40084 51008 333 6///7=
71940 42782 82903 11004 21046 39206 40006 51007 333 6///7=
71943 42685 73410 11051 21059 39175 40009 51012 333 6///7=
71944 26/// /1503 11009 21013 39198 40027 52006 333 60007=
71945 42974 70502 11131 21146 39549 40026 52016 333 6///7=
71946 42274 83206 11095 21108 39812 40028 52015 333 6///7=
71948 461// 80926 11157 21177 39927 40041 52004 333 6///7=
71949 26/// /1301 11220 21240 39202 40110 53009 333 60007=
71950 47/05 /1401 11017 21017 39408 40036 52011 735// 333 6///7=
71951 42262 83510 10011 20002 39759 40025 51010 333 6///7=
71952 26/// /0000 11054 21059 39186 40037 53012 333 60007=
71954 46/// /0404 11123 21142 39602 49982 53010 333 6///7=
71956 26/// /2209 11004 21029 39840 40072 57005 333 60007=
71960 462// 81311 11079 21084 39893 40024 52004 333 6///7=
71963 26/// ///// 11279 21310 39681 40103 51007 333 60007=
71964 42156 81505 11142 21160 39199 40075 52010 333 6///7=
71965 42366 83608 11135 21153 39455 40091 53009 333 6///7=
71966 26/// /0000 11140 21162 39620 40090 52008 333 60007=
71967 26/// /2109 11039 21055 30025 40133 51002 333 60007=
71968 461// 83132 11134 21150 30010 40074 52015 333 6///7=
71972 45/// ///// 11131 39519 49987 58004 333 6///7=
71975 45/// ///// 11207 39358 40109 55000 333 6///7=
71978 26/// /0507 11119 21159 39778 40094 51022 333 60007=
71979 46/// /2706 11008 21097 38353 49992 53004 333 6///7=
71981 26/// /2507 11037 21094 333 60007=
71982 27/// /3006 11078 21125 7//4/ 333 69967=
71984 26/// /1805 11091 21124 30039 40047 53008 333 60007=
71985 46/// ///// 11085 21095 30013 40019 50003 333 6///7=
71986 26/// /1905 11071 21093 333 60007=
78062 42569 60410 10184 20096 40264 86802 333 82828 86640=
78073 42665 70508 10220 201300 40250 84842 333 82830 84640 86072=
78388 41572 70814 10267 20230 30167 40176 70522 86802 333 59004 86820 87072=
78397 41570 71503 10275 20230 30166 40168 70522 83878 333 59002 82820 85458 87270=
78583 42675 63406 10185 20167 40224 81501 333 0/205 59012 81645 86080=
78700 32570 23606 10278 20201 30164 40169 81101 333 56000 59004 81825=
78703 31560 30310 10263 20182 30208 40210 70544 81131 333 56300 59006 81825=
78705 21560 60303 10232 20214 30188 40205 54000 72164 85230 333 56220 59030 60045 85824 83357=
78706 21560 73102 10200 20200 30210 40215 72054 85270 333 56800 59010 60031 85828 87458=
78707 31560 70902 10190 20169 39435 40201 70544 83570 333 56000 59018 83623 87457=
78708 21156 82304 10192 20192 30186 30217 75165 8672/ 333 56099 59016 60020 81702 85615 88458=
78711 315670 73008 10254 20210 30172 40187 70544 83270 333 56800 59015 83826 87358=
78714 32570 42502 10261 20230 390746 40186 5/// 84100 333 56500 5/// 84826=
78717 21220 83504 10136 20136 39000 40210 52010 75155 885// 333 56899 59020 60010 85705 88615=
78718 32570 70208 10138 20119 38392 40191 86401 333 56100 59002 86620=
78719 31660 43514 10176 20137 70544 83431 333 56800 83835=
78720 31458 63616 10177 20150 39076 40206 52016 70544 85530 333 56800 59011 81708 85622=
78724 31575 30218 10298 20191 30080 40137 70544 82101 333 56100 59017 82830=
78866 41475 41111 10274 20215 30185 40190 52010 72580 84801 333 58010 84818=
78897 44584 61111 10287 20215 40180 50007 700// 333 58010=
78962 41568 41014 10299 20237 30146 40162 70511 81202 333 02209 58007 81820 84078=
78970 41462 71209 10281 20236 02209 30135 40160 58007 71582 82402 82818 87080=
78988 22573 51113 10292 20228 30151 40161 52010 83204 333 58004 60007 83823 83081=